Aeroporto :
LOGIN :

Iscrizione | Disclaimer

   EN    FR    IT 

 










Sommario :    VFR   VFR Marginale   IFR   IFR Intensivo   IFR Molto Intensivo
Visibilità : 
Base nubi : 
>= 8 km
>= 3000ft
5 / 8 km
1000 / 3000 ft
1500m / 5 km
500 / 1000 ft
800 / 1500m
200 / 500 ft
< 800m
< 200 ft
Simboli :   Temporali  Nebbia  Neve Forte  Precipitazioni Forti  Vento > 20 kt
SIGMETs :   Varie  Temporali  Ghiacco  Turbolenza  Onda orograficha  Ceneri Vulcaniche






- Altitudine del aeroporto : 141 ft
- Codice IATA : SKS


EKSP - Srydstrup Vojens

ULTIMO METAR :
  • 250020Z 23018KT 9999 FEW003 BKN012 07/05 Q0989

METARs OBSOLETI :
  • 250011Z 24017G29KT 8000 SCT003 BKN012 07/06 Q0989
  • 242350Z 23013KT 8000 SCT003 BKN012 06/06 Q0989
  • 242320Z 17008KT 3000 BR BKN003 04/03 Q0990
  • 242250Z 14010KT 110V170 6000 -DZ FEW002 BKN006 03/02 Q0990
  • 242220Z 13008KT 4000 -DZ BR BKN006 02/02 Q0991
  • 242150Z 13010KT 3000 -SHRASN BR BKN006 02/02 Q0992

TAF TAF EKSP
Valido dal 25 a 00 ore il 26 a 00 ore UTC


242320Z 2500/2524 25022KT 9999 SCT012 BKN020
TEMPO 2500/2511 24028G40KT 6000 -SHRA BKN012 SCT020CB
TEMPO 2511/2518 24032G50KT -SHRA SCT020CB
BECMG 2518/2521 27020G30KT
BECMG 2521/2524 27015KT



MetMap, La meteo Aeronautica in un colpo d'occhio ! - Copyright ORBIFLY Dicembre 2007 - Disclaimer

ORBIFLY MET'MAP TEAM :

Programmazione e sviluppo : Alexandra Zaïnal
Concezione : Baudouin d'Aumeries
Aiuto per la programmazione : Marc-Olivier Méhu
Supporto tecnico e logistico : Manuel Goepfert
Aiuto per la traduzione : Arnaldo La Scala

Contatto : metmap@orbifly.com




FONTI E CREDITI :

   NOAA